Time;durP1;ratioP1;P1;durP2;ratioP2;P2;SDS_P1;SDS_P2;PMS_P1;PMS_P2;Temp;Humidity;BMP_temperature;BMP_pressure;BME280_temperature;BME280_humidity;BME280_pressure;Samples;Min_cycle;Max_cycle;Signal;HPM_P1;HPM_P2
2022/11/01 00:01:04;;;;;;;38.08;16.45;;;;;;;;;;4990172;28;20348;-59
2022/11/01 00:03:29;;;;;;;38.97;17.02;;;;;;;;;;4991223;28;20503;-60
2022/11/01 00:05:54;;;;;;;32.30;15.13;;;;;;;;;;4990025;28;20458;-58
2022/11/01 00:08:20;;;;;;;30.27;14.55;;;;;;;;;;4990651;28;20427;-59
2022/11/01 00:10:45;;;;;;;27.30;13.57;;;;;;;;;;4990588;28;20297;-59
2022/11/01 00:13:10;;;;;;;32.90;15.10;;;;;;;;;;4990267;28;20529;-58
2022/11/01 00:15:35;;;;;;;34.67;13.70;;;;;;;;;;4990911;28;20440;-60
2022/11/01 00:18:01;;;;;;;26.90;13.43;;;;;;;;;;4990551;28;20505;-59
2022/11/01 00:20:26;;;;;;;29.98;13.10;;;;;;;;;;4989933;28;20420;-61
2022/11/01 00:22:51;;;;;;;29.75;13.75;;;;;;;;;;4990279;28;20390;-59
2022/11/01 00:25:17;;;;;;;28.20;13.55;;;;;;;;;;4990910;28;20415;-60
2022/11/01 00:27:42;;;;;;;25.33;14.32;;;;;;;;;;4990843;28;20396;-59
2022/11/01 00:30:08;;;;;;;37.20;15.35;;;;;;;;;;4990071;28;20424;-59
2022/11/01 00:32:33;;;;;;;26.20;13.20;;;;;;;;;;4990865;28;20565;-60
2022/11/01 00:34:58;;;;;;;27.65;13.55;;;;;;;;;;4990360;28;20420;-59
2022/11/01 00:37:24;;;;;;;25.63;12.75;;;;;;;;;;4989769;28;20293;-59
2022/11/01 00:39:49;;;;;;;32.03;12.68;;;;;;;;;;4989615;28;20440;-59
2022/11/01 00:42:14;;;;;;;30.98;14.23;;;;;;;;;;4990155;28;20454;-60
2022/11/01 00:44:40;;;;;;;31.73;13.57;;;;;;;;;;4990745;28;20332;-61
2022/11/01 00:47:05;;;;;;;30.73;14.35;;;;;;;;;;4989905;28;20332;-58
2022/11/01 00:49:30;;;;;;;25.90;13.00;;;;;;;;;;4990011;28;20447;-61
2022/11/01 00:51:56;;;;;;;25.75;13.27;;;;;;;;;;4989469;28;20425;-58
2022/11/01 00:54:21;;;;;;;22.48;12.73;;;;;;;;;;4989494;28;20428;-60
2022/11/01 00:56:46;;;;;;;26.13;12.90;;;;;;;;;;4989967;28;20416;-59
2022/11/01 00:59:12;;;;;;;24.63;13.73;;;;;;;;;;4989968;28;20444;-59
2022/11/01 01:01:37;;;;;;;33.53;16.80;;;;;;;;;;4983633;28;20440;-60
2022/11/01 01:04:02;;;;;;;22.02;11.90;;;;;;;;;;4979083;28;20431;-59
2022/11/01 01:06:28;;;;;;;23.45;12.43;;;;;;;;;;4968783;28;20329;-59
2022/11/01 01:08:57;;;;;;;25.92;11.50;;;;;;;;;;4971158;28;20436;-59
2022/11/01 01:11:22;;;;;;;;;;;;;;;;;;4970376;28;20493;-59
2022/11/01 01:13:47;;;;;;;25.45;11.32;;;;;;;;;;4970704;28;20320;-59
2022/11/01 01:16:12;;;;;;;21.25;11.93;;;;;;;;;;4969643;28;20385;-59
2022/11/01 01:18:38;;;;;;;21.70;10.65;;;;;;;;;;4969681;28;20519;-61
2022/11/01 01:21:04;;;;;;;29.02;14.63;;;;;;;;;;4969163;28;20314;-59
2022/11/01 01:23:29;;;;;;;36.08;14.13;;;;;;;;;;4969228;28;20475;-59
2022/11/01 01:25:55;;;;;;;36.05;15.98;;;;;;;;;;4969884;28;20409;-59
2022/11/01 01:28:20;;;;;;;21.42;12.25;;;;;;;;;;4970914;28;20322;-59
2022/11/01 01:30:45;;;;;;;31.05;12.43;;;;;;;;;;4969390;28;20320;-59
2022/11/01 01:33:11;;;;;;;20.55;11.38;;;;;;;;;;4969220;28;20495;-59
2022/11/01 01:35:37;;;;;;;20.77;11.20;;;;;;;;;;4969684;28;20519;-59
2022/11/01 01:38:03;;;;;;;25.70;12.57;;;;;;;;;;4968743;28;20113;-59
2022/11/01 01:40:28;;;;;;;26.75;12.65;;;;;;;;;;4971117;28;20481;-59
2022/11/01 01:42:53;;;;;;;29.30;12.75;;;;;;;;;;4967552;28;20459;-59
2022/11/01 01:45:30;;;;;;;30.88;13.27;;;;;;;;;;4970613;28;20432;-59
2022/11/01 01:48:06;;;;;;;31.25;14.60;;;;;;;;;;4969306;28;20325;-59
2022/11/01 01:50:43;;;;;;;32.55;13.68;;;;;;;;;;4955350;28;20060;-59
2022/11/01 01:53:14;;;;;;;31.30;13.18;;;;;;;;;;4988872;28;20032;-59
2022/11/01 01:55:48;;;;;;;28.52;13.30;;;;;;;;;;4988457;28;20054;-59
2022/11/01 01:58:16;;;;;;;25.65;12.65;;;;;;;;;;4986905;28;20116;-59
2022/11/01 02:00:43;;;;;;;26.65;14.32;;;;;;;;;;4986821;28;20333;-59
2022/11/01 02:03:09;;;;;;;27.63;12.32;;;;;;;;;;4988480;28;20438;-58
2022/11/01 02:05:53;;;;;;;27.25;13.07;;;;;;;;;;4988419;28;20456;-59
2022/11/01 02:08:26;;;;;;;24.80;13.45;;;;;;;;;;4987052;28;20412;-59
2022/11/01 02:10:53;;;;;;;26.58;13.00;;;;;;;;;;4987030;28;20455;-61
2022/11/01 02:13:18;;;;;;;29.55;14.77;;;;;;;;;;4988879;28;20440;-59
2022/11/01 02:15:59;;;;;;;22.58;12.68;;;;;;;;;;4988492;28;20495;-59
2022/11/01 02:18:35;;;;;;;30.30;14.38;;;;;;;;;;4988213;28;20420;-59
2022/11/01 02:21:25;;;;;;;29.17;13.55;;;;;;;;;;4986705;28;20033;-59
2022/11/01 02:24:11;;;;;;;25.38;13.00;;;;;;;;;;4988626;28;20092;-60
2022/11/01 02:26:42;;;;;;;33.67;14.52;;;;;;;;;;4988468;28;20536;-58
2022/11/01 02:29:35;;;;;;;27.42;13.27;;;;;;;;;;4988777;28;20337;-59
2022/11/01 02:32:21;;;;;;;28.20;13.20;;;;;;;;;;4987022;28;20040;-59
2022/11/01 02:34:59;;;;;;;22.45;13.13;;;;;;;;;;4986493;28;20386;-59
2022/11/01 02:37:46;;;;;;;22.95;11.45;;;;;;;;;;4986582;28;20436;-59
2022/11/01 02:40:20;;;;;;;22.48;11.30;;;;;;;;;;4987441;28;20458;-59
2022/11/01 02:42:48;;;;;;;19.25;11.45;;;;;;;;;;4986355;28;20444;-59
2022/11/01 02:45:49;;;;;;;21.98;11.30;;;;;;;;;;4988349;28;20482;-58
2022/11/01 02:48:15;;;;;;;23.17;12.13;;;;;;;;;;4964783;28;20453;-60
2022/11/01 02:50:43;;;;;;;25.33;12.00;;;;;;;;;;4987016;28;20417;-61
2022/11/01 02:53:08;;;;;;;28.05;12.75;;;;;;;;;;4986488;28;20495;-58
2022/11/01 02:55:34;;;;;;;22.20;11.60;;;;;;;;;;4987995;28;20456;-59
2022/11/01 02:58:02;;;;;;;25.98;12.82;;;;;;;;;;4988427;28;20111;-59
2022/11/01 03:00:31;;;;;;;20.45;11.05;;;;;;;;;;4988278;28;20025;-59
2022/11/01 03:03:11;;;;;;;22.60;10.73;;;;;;;;;;4988965;28;20429;-59
2022/11/01 03:05:52;;;;;;;18.88;10.23;;;;;;;;;;4987877;28;20679;-59
2022/11/01 03:08:20;;;;;;;21.05;11.52;;;;;;;;;;4986278;28;20366;-58
2022/11/01 03:10:46;;;;;;;21.83;10.80;;;;;;;;;;4986344;28;20314;-59
2022/11/01 03:13:11;;;;;;;21.98;10.85;;;;;;;;;;4989279;28;20758;-59
2022/11/01 03:15:42;;;;;;;28.23;12.15;;;;;;;;;;4991226;28;20494;-59
2022/11/01 03:18:12;;;;;;;26.40;12.25;;;;;;;;;;4989916;28;20378;-59
2022/11/01 03:20:47;;;;;;;31.02;12.77;;;;;;;;;;4990922;28;20301;-59
2022/11/01 03:23:18;;;;;;;26.95;12.98;;;;;;;;;;4990084;28;20021;-59
2022/11/01 03:25:49;;;;;;;31.92;13.32;;;;;;;;;;4989968;28;20040;-59
2022/11/01 03:28:20;;;;;;;29.67;14.48;;;;;;;;;;4973314;28;20339;-61
2022/11/01 03:30:54;;;;;;;26.30;13.82;;;;;;;;;;4989580;28;20032;-61
2022/11/01 03:33:21;;;;;;;27.92;12.10;;;;;;;;;;4989692;28;20416;-59
2022/11/01 03:35:49;;;;;;;29.92;13.65;;;;;;;;;;4989753;28;20455;-60
2022/11/01 03:38:18;;;;;;;40.13;13.23;;;;;;;;;;4991443;28;20312;-59
2022/11/01 03:40:48;;;;;;;39.08;14.75;;;;;;;;;;4989156;28;20371;-58
2022/11/01 03:43:15;;;;;;;32.08;14.43;;;;;;;;;;4991042;28;20129;-60
2022/11/01 03:45:42;;;;;;;39.25;14.43;;;;;;;;;;4989123;28;20376;-59
2022/11/01 03:48:07;;;;;;;48.80;17.17;;;;;;;;;;4989295;28;20498;-59
2022/11/01 03:50:33;;;;;;;38.53;16.50;;;;;;;;;;4991375;28;20459;-59
2022/11/01 03:52:58;;;;;;;36.80;16.20;;;;;;;;;;4990918;28;20348;-59
2022/11/01 03:55:24;;;;;;;35.67;15.88;;;;;;;;;;4991293;28;20436;-59
2022/11/01 03:57:54;;;;;;;37.60;16.35;;;;;;;;;;4990430;28;20430;-59
2022/11/01 04:00:27;;;;;;;32.67;14.52;;;;;;;;;;4991000;28;20515;-59
2022/11/01 04:02:53;;;;;;;31.80;15.02;;;;;;;;;;4990505;28;20033;-59
2022/11/01 04:05:20;;;;;;;33.70;15.45;;;;;;;;;;4990056;28;20460;-59
2022/11/01 04:07:46;;;;;;;32.78;15.23;;;;;;;;;;4990463;28;20344;-59
2022/11/01 04:10:12;;;;;;;29.98;14.18;;;;;;;;;;4990468;28;20063;-59
2022/11/01 04:12:38;;;;;;;32.97;14.60;;;;;;;;;;4990199;28;20025;-60
2022/11/01 04:20:33;;;;;;;40.65;15.27;;;;;;;;;;4991110;28;20475;-60
2022/11/01 04:22:59;;;;;;;37.25;16.85;;;;;;;;;;4988959;28;20401;-59
2022/11/01 04:25:24;;;;;;;45.50;16.50;;;;;;;;;;4990847;28;20443;-59
2022/11/01 04:27:50;;;;;;;34.10;16.83;;;;;;;;;;4990450;28;20456;-59
2022/11/01 04:30:15;;;;;;;41.63;16.42;;;;;;;;;;4990270;28;20324;-61
2022/11/01 04:32:43;;;;;;;33.15;15.32;;;;;;;;;;4990161;28;20436;-59
2022/11/01 04:35:12;;;;;;;29.65;15.30;;;;;;;;;;4990190;28;20321;-59
2022/11/01 04:37:38;;;;;;;32.17;15.48;;;;;;;;;;4990045;28;20410;-58
2022/11/01 04:40:06;;;;;;;33.10;15.05;;;;;;;;;;4989910;28;20383;-59
2022/11/01 04:42:33;;;;;;;34.50;15.48;;;;;;;;;;4990014;28;20474;-59
2022/11/01 04:44:59;;;;;;;30.17;15.10;;;;;;;;;;4990214;28;20091;-58
2022/11/01 04:47:24;;;;;;;29.05;14.70;;;;;;;;;;4989524;28;20510;-59
2022/11/01 04:49:50;;;;;;;39.63;16.40;;;;;;;;;;4989764;28;20471;-59
2022/11/01 04:52:15;;;;;;;42.47;15.55;;;;;;;;;;4992906;28;20320;-59
2022/11/01 04:54:40;;;;;;;36.25;16.33;;;;;;;;;;4987336;28;20465;-59
2022/11/01 04:57:06;;;;;;;36.13;15.48;;;;;;;;;;4989656;28;20444;-59
2022/11/01 04:59:31;;;;;;;32.42;15.45;;;;;;;;;;4989660;28;20029;-59
2022/11/01 05:01:56;;;;;;;33.65;15.15;;;;;;;;;;4989468;28;20535;-59
2022/11/01 05:04:22;;;;;;;45.35;16.10;;;;;;;;;;4988108;28;21650;-59
2022/11/01 05:06:47;;;;;;;31.92;14.98;;;;;;;;;;4988949;28;20067;-59
2022/11/01 05:09:12;;;;;;;31.83;14.23;;;;;;;;;;4989693;28;20428;-59
2022/11/01 05:11:37;;;;;;;36.05;15.13;;;;;;;;;;4989117;28;20454;-59
2022/11/01 05:14:03;;;;;;;32.53;14.23;;;;;;;;;;4989766;28;20504;-59
2022/11/01 05:16:28;;;;;;;30.80;12.60;;;;;;;;;;4989958;28;20428;-60
2022/11/01 05:18:53;;;;;;;25.80;13.13;;;;;;;;;;4989565;28;20436;-59
2022/11/01 05:21:19;;;;;;;28.02;14.55;;;;;;;;;;4989139;28;20497;-59
2022/11/01 05:23:47;;;;;;;29.75;14.35;;;;;;;;;;4990196;28;20378;-59
2022/11/01 05:26:12;;;;;;;32.40;12.90;;;;;;;;;;4988852;28;20143;-59
2022/11/01 05:28:37;;;;;;;28.20;13.20;;;;;;;;;;4988990;28;20495;-59
2022/11/01 05:31:02;;;;;;;26.58;12.55;;;;;;;;;;4989017;28;20436;-59
2022/11/01 05:33:28;;;;;;;31.10;13.70;;;;;;;;;;4988552;28;20418;-59
2022/11/01 05:35:53;;;;;;;26.65;12.88;;;;;;;;;;4989273;28;20409;-60
2022/11/01 05:38:19;;;;;;;23.45;11.93;;;;;;;;;;4988446;28;20416;-58
2022/11/01 05:40:44;;;;;;;29.77;12.65;;;;;;;;;;4988892;28;20510;-59
2022/11/01 05:43:09;;;;;;;28.08;12.63;;;;;;;;;;4988717;28;20347;-59
2022/11/01 05:45:35;;;;;;;27.60;12.90;;;;;;;;;;4988900;28;20464;-58
2022/11/01 05:48:02;;;;;;;34.42;14.48;;;;;;;;;;4988736;28;20412;-59
2022/11/01 05:50:27;;;;;;;28.95;14.15;;;;;;;;;;4988926;28;20467;-59
2022/11/01 05:52:52;;;;;;;30.60;15.23;;;;;;;;;;4990112;28;20052;-59
2022/11/01 05:55:18;;;;;;;44.55;16.80;;;;;;;;;;4988753;28;20486;-59
2022/11/01 05:57:43;;;;;;;37.45;15.50;;;;;;;;;;4988138;28;20519;-59
2022/11/01 06:00:09;;;;;;;41.03;15.75;;;;;;;;;;4989986;28;20429;-59
2022/11/01 06:02:35;;;;;;;36.75;16.35;;;;;;;;;;4989987;28;20345;-59
2022/11/01 06:05:00;;;;;;;43.78;18.95;;;;;;;;;;4989474;28;20134;-59
2022/11/01 06:07:25;;;;;;;40.80;18.15;;;;;;;;;;4988315;28;20313;-59
2022/11/01 06:09:51;;;;;;;41.47;17.23;;;;;;;;;;4988675;28;20021;-60
2022/11/01 06:12:16;;;;;;;35.15;17.55;;;;;;;;;;4989638;28;20028;-59
2022/11/01 06:14:42;;;;;;;30.85;14.25;;;;;;;;;;4990117;28;20440;-60
2022/11/01 06:17:11;;;;;;;57.80;24.15;;;;;;;;;;4989235;28;20355;-59
2022/11/01 06:19:37;;;;;;;54.05;25.85;;;;;;;;;;4988818;28;20458;-60
2022/11/01 06:22:02;;;;;;;28.05;14.45;;;;;;;;;;4988595;28;20436;-58
2022/11/01 06:24:28;;;;;;;76.45;33.55;;;;;;;;;;4989748;28;20336;-59
2022/11/01 06:26:53;;;;;;;166.57;74.47;;;;;;;;;;4988201;28;20476;-60
2022/11/01 06:29:18;;;;;;;141.80;62.08;;;;;;;;;;4988362;28;20076;-59
2022/11/01 06:31:43;;;;;;;115.95;49.08;;;;;;;;;;5003646;28;20420;-59
2022/11/01 06:34:09;;;;;;;110.10;50.90;;;;;;;;;;4988338;28;20427;-59
2022/11/01 06:36:34;;;;;;;91.57;40.88;;;;;;;;;;4988389;28;20483;-59
2022/11/01 06:38:59;;;;;;;104.72;43.78;;;;;;;;;;4988344;28;20454;-62
2022/11/01 06:41:25;;;;;;;85.55;40.10;;;;;;;;;;4988473;28;20542;-59
2022/11/01 06:43:50;;;;;;;66.70;31.48;;;;;;;;;;4989791;28;20048;-59
2022/11/01 06:46:15;;;;;;;54.58;27.30;;;;;;;;;;4988292;28;20459;-59
2022/11/01 06:48:41;;;;;;;49.13;23.73;;;;;;;;;;4991411;28;20470;-59
2022/11/01 06:51:06;;;;;;;33.92;15.90;;;;;;;;;;4991916;28;20432;-59
2022/11/01 06:53:31;;;;;;;40.60;17.70;;;;;;;;;;4990669;28;20412;-59
2022/11/01 06:55:58;;;;;;;32.45;17.08;;;;;;;;;;4991785;28;20405;-60
2022/11/01 06:58:23;;;;;;;31.77;15.45;;;;;;;;;;4991855;28;20379;-59
2022/11/01 07:00:49;;;;;;;37.95;14.25;;;;;;;;;;4991834;28;20087;-58
2022/11/01 07:03:14;;;;;;;35.25;17.50;;;;;;;;;;4991590;28;20029;-60
2022/11/01 07:05:40;;;;;;;29.05;14.50;;;;;;;;;;4991386;28;20363;-59
2022/11/01 07:08:07;;;;;;;31.17;15.57;;;;;;;;;;4991678;28;20406;-59
2022/11/01 07:10:32;;;;;;;27.90;12.55;;;;;;;;;;4991473;28;20432;-59
2022/11/01 07:12:59;;;;;;;26.92;13.80;;;;;;;;;;4992724;28;20416;-59
2022/11/01 07:15:24;;;;;;;28.42;13.27;;;;;;;;;;4990979;28;20464;-60
2022/11/01 07:17:54;;;;;;;27.40;14.20;;;;;;;;;;4991458;28;20478;-59
2022/11/01 07:20:20;;;;;;;31.77;14.75;;;;;;;;;;4991525;28;20510;-60
2022/11/01 07:22:45;;;;;;;34.85;13.32;;;;;;;;;;4991253;28;20325;-59
2022/11/01 07:25:11;;;;;;;27.02;13.07;;;;;;;;;;4991412;28;20363;-60
2022/11/01 07:27:36;;;;;;;33.58;15.35;;;;;;;;;;4991475;28;20513;-59
2022/11/01 07:30:03;;;;;;;27.55;13.23;;;;;;;;;;4991810;28;20397;-59
2022/11/01 07:32:28;;;;;;;27.33;14.07;;;;;;;;;;4991013;28;20521;-59
2022/11/01 07:34:53;;;;;;;28.27;14.15;;;;;;;;;;4991202;28;20499;-61
2022/11/01 07:37:18;;;;;;;74.10;28.67;;;;;;;;;;4991026;28;20707;-59
2022/11/01 07:39:44;;;;;;;54.95;23.58;;;;;;;;;;4991579;28;20432;-60
2022/11/01 07:42:09;;;;;;;38.83;18.55;;;;;;;;;;4990969;28;20530;-59
2022/11/01 07:44:34;;;;;;;37.83;16.48;;;;;;;;;;4991127;28;20527;-59
2022/11/01 07:47:00;;;;;;;36.30;17.05;;;;;;;;;;4990940;28;20483;-60
2022/11/01 07:49:25;;;;;;;32.38;16.50;;;;;;;;;;4991761;28;20422;-59
2022/11/01 07:51:50;;;;;;;32.08;13.50;;;;;;;;;;4991781;28;20504;-62
2022/11/01 07:54:16;;;;;;;28.70;14.20;;;;;;;;;;4990782;28;20436;-60
2022/11/01 07:56:41;;;;;;;30.15;13.85;;;;;;;;;;4990919;28;20392;-60
2022/11/01 07:59:07;;;;;;;27.02;12.73;;;;;;;;;;4991066;28;20513;-60
2022/11/01 08:01:33;;;;;;;24.55;12.52;;;;;;;;;;4991475;28;20496;-60
2022/11/01 08:03:58;;;;;;;27.73;12.98;;;;;;;;;;4990710;28;20444;-60
2022/11/01 08:06:23;;;;;;;28.15;12.82;;;;;;;;;;4990230;28;20492;-61
2022/11/01 08:08:49;;;;;;;28.63;14.60;;;;;;;;;;4990767;28;20392;-60
2022/11/01 08:11:14;;;;;;;26.95;13.90;;;;;;;;;;4990588;28;20408;-64
2022/11/01 08:13:39;;;;;;;27.60;12.98;;;;;;;;;;4990647;28;20341;-60
2022/11/01 08:16:05;;;;;;;23.63;13.10;;;;;;;;;;4990432;28;20436;-60
2022/11/01 08:18:30;;;;;;;25.40;11.85;;;;;;;;;;4990087;28;20636;-61
2022/11/01 08:20:58;;;;;;;21.80;10.73;;;;;;;;;;4991417;28;20487;-60
2022/11/01 08:23:23;;;;;;;23.98;12.23;;;;;;;;;;4990149;28;20025;-59
2022/11/01 08:25:49;;;;;;;20.95;11.23;;;;;;;;;;4989929;28;20492;-61
2022/11/01 08:28:16;;;;;;;22.92;11.15;;;;;;;;;;4991073;28;20592;-60
2022/11/01 08:30:43;;;;;;;18.48;10.90;;;;;;;;;;4990342;28;20394;-61
2022/11/01 08:33:09;;;;;;;20.23;10.63;;;;;;;;;;4990301;28;20432;-60
2022/11/01 08:35:35;;;;;;;23.25;11.65;;;;;;;;;;4990062;28;20336;-60
2022/11/01 08:38:02;;;;;;;22.35;10.88;;;;;;;;;;4990961;28;20352;-60
2022/11/01 08:40:28;;;;;;;19.92;9.98;;;;;;;;;;4989337;28;20025;-60
2022/11/01 08:42:53;;;;;;;21.98;10.75;;;;;;;;;;4991570;28;20017;-60
2022/11/01 08:45:18;;;;;;;19.55;8.88;;;;;;;;;;4989931;28;20033;-60
2022/11/01 08:47:44;;;;;;;16.90;9.52;;;;;;;;;;4990757;28;20434;-60
2022/11/01 08:50:11;;;;;;;15.98;9.32;;;;;;;;;;4989552;28;20352;-60
2022/11/01 08:52:37;;;;;;;17.40;9.63;;;;;;;;;;4990008;28;20427;-61
2022/11/01 08:55:03;;;;;;;18.38;10.07;;;;;;;;;;5003909;28;20418;-60
2022/11/01 08:57:29;;;;;;;16.33;9.13;;;;;;;;;;4989433;28;20325;-61
2022/11/01 09:02:20;;;;;;;16.52;8.73;;;;;;;;;;4974004;27;124819;-62
2022/11/01 09:04:45;;;;;;;17.08;9.00;;;;;;;;;;5012579;28;20078;-61
2022/11/01 09:07:10;;;;;;;19.80;9.32;;;;;;;;;;4944725;28;20340;-61
2022/11/01 09:09:36;;;;;;;20.67;8.85;;;;;;;;;;5015754;28;20452;-62
2022/11/01 09:12:05;;;;;;;19.45;10.77;;;;;;;;;;5026655;28;20457;-59
2022/11/01 09:14:30;;;;;;;;;;;;;;;;;;5026329;28;20423;-60
2022/11/01 09:16:55;;;;;;;26.48;15.85;;;;;;;;;;5025369;28;20262;-59
2022/11/01 09:19:21;;;;;;;18.17;10.52;;;;;;;;;;5025362;28;20514;-60
2022/11/01 09:21:46;;;;;;;18.38;10.13;;;;;;;;;;5026105;28;20424;-59
2022/11/01 09:24:13;;;;;;;17.63;9.30;;;;;;;;;;5025309;28;20411;-60
2022/11/01 09:26:38;;;;;;;17.15;8.90;;;;;;;;;;5025069;28;20451;-60
2022/11/01 09:29:04;;;;;;;16.65;8.27;;;;;;;;;;5026181;28;20339;-59
2022/11/01 09:31:29;;;;;;;15.75;8.15;;;;;;;;;;5025144;28;20050;-61
2022/11/01 09:33:56;;;;;;;16.20;8.73;;;;;;;;;;5025849;28;20434;-59
2022/11/01 09:36:22;;;;;;;15.02;8.50;;;;;;;;;;5025085;28;20449;-60
2022/11/01 09:38:48;;;;;;;15.75;7.68;;;;;;;;;;5025280;28;20300;-60
2022/11/01 09:41:33;;;;;;;16.67;8.75;;;;;;;;;;5026354;28;20054;-60
2022/11/01 09:44:00;;;;;;;14.13;7.63;;;;;;;;;;5024701;28;20490;-61
2022/11/01 09:46:30;;;;;;;12.75;6.82;;;;;;;;;;5026959;28;20327;-59
2022/11/01 09:49:00;;;;;;;11.07;7.30;;;;;;;;;;5024906;28;20439;-60
2022/11/01 09:51:25;;;;;;;14.00;7.15;;;;;;;;;;5025638;28;20050;-59
2022/11/01 09:53:56;;;;;;;13.68;7.32;;;;;;;;;;5007578;28;20028;-60
2022/11/01 09:56:33;;;;;;;17.67;7.80;;;;;;;;;;5024524;28;20501;-59
2022/11/01 09:59:07;;;;;;;15.85;7.40;;;;;;;;;;5006512;28;20362;-59
2022/11/01 10:01:51;;;;;;;12.50;6.53;;;;;;;;;;5005653;28;20475;-60
2022/11/01 10:04:32;;;;;;;15.55;7.00;;;;;;;;;;4999734;28;20033;-60
2022/11/01 10:06:58;;;;;;;11.73;6.50;;;;;;;;;;4983497;28;20468;-59
2022/11/01 10:09:33;;;;;;;15.32;6.38;;;;;;;;;;4999432;28;20391;-60
2022/11/01 10:12:13;;;;;;;14.93;6.55;;;;;;;;;;4996407;28;20500;-59
2022/11/01 10:14:53;;;;;;;11.10;6.03;;;;;;;;;;4971743;28;20484;-59
2022/11/01 10:17:44;;;;;;;9.63;6.30;;;;;;;;;;4986027;28;20432;-60
2022/11/01 10:20:11;;;;;;;11.77;5.88;;;;;;;;;;4971298;28;20556;-59
2022/11/01 10:22:37;;;;;;;14.63;5.97;;;;;;;;;;4970024;28;20413;-61
2022/11/01 10:25:21;;;;;;;12.82;5.40;;;;;;;;;;4971589;28;20468;-59
2022/11/01 10:27:52;;;;;;;11.82;6.05;;;;;;;;;;4972312;28;20302;-59
2022/11/01 10:30:19;;;;;;;12.05;5.00;;;;;;;;;;4971338;28;20030;-60
2022/11/01 10:33:22;;;;;;;10.25;4.25;;;;;;;;;;4986741;28;20321;-59
2022/11/01 10:35:55;;;;;;;8.73;4.65;;;;;;;;;;4971222;28;20021;-59
2022/11/01 10:38:46;;;;;;;10.85;4.82;;;;;;;;;;4971588;28;20337;-60
2022/11/01 10:41:41;;;;;;;8.50;4.75;;;;;;;;;;4970567;28;20376;-61
2022/11/01 10:44:22;;;;;;;12.38;5.43;;;;;;;;;;4965387;28;20152;-60
2022/11/01 10:46:49;;;;;;;6.57;3.95;;;;;;;;;;4970011;28;20467;-60
2022/11/01 10:49:23;;;;;;;8.13;4.25;;;;;;;;;;4969512;28;20427;-60
2022/11/01 10:51:48;;;;;;;10.77;4.80;;;;;;;;;;4970988;28;20021;-59
2022/11/01 10:54:26;;;;;;;10.50;4.78;;;;;;;;;;4970527;28;20522;-60
2022/11/01 10:56:53;;;;;;;8.50;4.30;;;;;;;;;;4969719;28;20369;-60
2022/11/01 10:59:24;;;;;;;6.18;3.90;;;;;;;;;;4969661;28;20111;-59
2022/11/01 11:01:50;;;;;;;8.43;3.97;;;;;;;;;;4969413;28;20159;-59
2022/11/01 11:04:19;;;;;;;7.70;4.07;;;;;;;;;;4972615;28;20330;-60
2022/11/01 11:06:45;;;;;;;11.13;4.38;;;;;;;;;;4970876;28;20436;-59
2022/11/01 11:09:21;;;;;;;8.80;3.90;;;;;;;;;;4970691;28;20503;-60
2022/11/01 11:11:47;;;;;;;12.25;3.95;;;;;;;;;;4970905;28;20116;-61
2022/11/01 11:14:13;;;;;;;7.25;3.40;;;;;;;;;;4970369;28;20482;-59
2022/11/01 11:16:45;;;;;;;7.43;3.42;;;;;;;;;;4968981;28;20025;-60
2022/11/01 11:19:14;;;;;;;7.25;3.10;;;;;;;;;;4969187;28;20472;-61
2022/11/01 11:21:42;;;;;;;7.07;3.17;;;;;;;;;;4970342;28;20349;-59
2022/11/01 11:24:18;;;;;;;5.90;3.53;;;;;;;;;;4970316;28;20476;-60
2022/11/01 11:26:45;;;;;;;7.43;3.75;;;;;;;;;;4970266;28;20463;-60
2022/11/01 11:29:21;;;;;;;8.07;3.22;;;;;;;;;;4985764;28;20025;-59
2022/11/01 11:31:54;;;;;;;9.10;3.92;;;;;;;;;;4970468;28;20433;-60
2022/11/01 11:34:25;;;;;;;8.88;3.17;;;;;;;;;;4968460;28;20129;-60
2022/11/01 11:36:53;;;;;;;7.25;3.47;;;;;;;;;;4970318;28;20201;-60
2022/11/01 11:39:27;;;;;;;9.13;3.67;;;;;;;;;;4971890;28;20352;-60
2022/11/01 11:41:53;;;;;;;8.35;4.38;;;;;;;;;;4970090;28;20426;-60
2022/11/01 11:44:36;;;;;;;5.25;3.20;;;;;;;;;;4971038;28;20296;-60
2022/11/01 11:47:02;;;;;;;7.47;3.55;;;;;;;;;;4969758;28;20099;-60
2022/11/01 11:49:27;;;;;;;7.60;3.33;;;;;;;;;;4969861;28;20025;-60
2022/11/01 11:51:53;;;;;;;6.90;3.50;;;;;;;;;;4969857;28;20460;-61
2022/11/01 11:54:27;;;;;;;6.53;4.05;;;;;;;;;;4969462;28;20045;-60
2022/11/01 11:57:09;;;;;;;7.18;2.97;;;;;;;;;;4968377;28;20440;-60
2022/11/01 11:59:35;;;;;;;25.10;4.20;;;;;;;;;;4968418;28;20527;-60
2022/11/01 12:02:03;;;;;;;7.72;3.78;;;;;;;;;;5004004;28;20390;-60
2022/11/01 12:04:46;;;;;;;9.05;3.97;;;;;;;;;;5009439;28;20462;-60
2022/11/01 12:07:23;;;;;;;8.75;4.03;;;;;;;;;;4990902;28;20320;-62
2022/11/01 12:09:48;;;;;;;12.60;3.85;;;;;;;;;;4992426;28;20024;-60
2022/11/01 12:12:29;;;;;;;9.30;3.47;;;;;;;;;;5009548;28;20476;-59
2022/11/01 12:14:56;;;;;;;10.13;3.65;;;;;;;;;;5009189;28;20441;-59
2022/11/01 12:17:27;;;;;;;8.65;3.72;;;;;;;;;;5009006;28;20312;-59
2022/11/01 12:20:17;;;;;;;6.68;3.58;;;;;;;;;;5008999;28;20055;-61
2022/11/01 12:22:49;;;;;;;7.32;3.65;;;;;;;;;;4990939;28;20032;-59
2022/11/01 12:25:18;;;;;;;4.53;3.55;;;;;;;;;;5008475;28;20016;-61
2022/11/01 12:27:52;;;;;;;11.90;3.53;;;;;;;;;;4990582;28;20486;-60
2022/11/01 12:30:20;;;;;;;11.75;4.32;;;;;;;;;;4991703;28;20031;-60
2022/11/01 12:32:52;;;;;;;7.45;3.85;;;;;;;;;;4991242;28;20484;-60
2022/11/01 12:35:28;;;;;;;7.90;3.80;;;;;;;;;;4990259;28;20331;-60
2022/11/01 12:38:01;;;;;;;9.25;4.25;;;;;;;;;;4990754;28;20455;-59
2022/11/01 12:40:37;;;;;;;7.53;3.88;;;;;;;;;;4990090;28;20512;-61
2022/11/01 12:43:20;;;;;;;10.10;5.13;;;;;;;;;;5008681;28;20315;-59
2022/11/01 12:45:52;;;;;;;8.85;4.03;;;;;;;;;;4990598;28;20526;-59
2022/11/01 12:48:36;;;;;;;10.60;4.22;;;;;;;;;;5007112;28;20454;-59
2022/11/01 12:51:04;;;;;;;8.30;4.05;;;;;;;;;;5008525;28;20448;-60
2022/11/01 12:53:38;;;;;;;6.47;3.50;;;;;;;;;;5008205;28;20434;-60
2022/11/01 12:56:04;;;;;;;7.80;3.92;;;;;;;;;;5006959;28;20451;-60
2022/11/01 12:58:29;;;;;;;8.93;4.22;;;;;;;;;;5008281;28;20459;-61
2022/11/01 13:01:05;;;;;;;9.50;3.83;;;;;;;;;;4978506;28;20472;-60
2022/11/01 13:04:08;;;;;;;11.85;4.88;;;;;;;;;;4970672;28;20127;-60
2022/11/01 13:06:46;;;;;;;12.85;4.57;;;;;;;;;;4968611;28;20464;-59
2022/11/01 13:09:36;;;;;;;10.32;4.88;;;;;;;;;;4971521;28;20328;-59
2022/11/01 13:12:04;;;;;;;10.93;4.28;;;;;;;;;;4969363;28;20383;-59
2022/11/01 13:14:43;;;;;;;9.05;4.00;;;;;;;;;;4983739;28;20413;-60
2022/11/01 13:17:15;;;;;;;9.45;4.30;;;;;;;;;;4967923;28;20379;-60
2022/11/01 13:20:06;;;;;;;8.27;3.85;;;;;;;;;;4968547;28;20421;-59
2022/11/01 13:22:40;;;;;;;8.88;4.72;;;;;;;;;;4964606;28;20539;-60
2022/11/01 13:25:20;;;;;;;15.18;6.32;;;;;;;;;;4983462;28;20487;-59
2022/11/01 13:27:58;;;;;;;14.73;5.00;;;;;;;;;;4969315;28;20052;-59
2022/11/01 13:30:23;;;;;;;10.30;4.65;;;;;;;;;;4968654;28;20333;-60
2022/11/01 13:33:00;;;;;;;17.90;4.93;;;;;;;;;;4966655;28;20349;-59
2022/11/01 13:35:52;;;;;;;13.70;4.38;;;;;;;;;;4969265;28;20451;-60
2022/11/01 13:38:36;;;;;;;10.23;5.47;;;;;;;;;;4968502;28;20444;-59
2022/11/01 13:41:07;;;;;;;11.52;4.90;;;;;;;;;;4968619;28;20371;-61
2022/11/01 13:43:39;;;;;;;17.55;5.45;;;;;;;;;;4968463;28;20451;-60
2022/11/01 13:46:30;;;;;;;5.80;3.90;;;;;;;;;;4967014;28;20536;-61
2022/11/01 13:49:08;;;;;;;7.15;4.10;;;;;;;;;;4972608;28;20510;-60
2022/11/01 13:51:44;;;;;;;11.85;3.72;;;;;;;;;;4972005;28;20375;-61
2022/11/01 13:54:36;;;;;;;8.90;4.93;;;;;;;;;;4972937;28;20068;-60
2022/11/01 13:57:12;;;;;;;10.60;5.38;;;;;;;;;;4986113;28;20518;-60
2022/11/01 13:59:40;;;;;;;13.18;5.15;;;;;;;;;;4964051;28;20330;-60
2022/11/01 14:02:24;;;;;;;7.72;4.68;;;;;;;;;;4998141;28;20521;-60
2022/11/01 14:04:55;;;;;;;12.40;4.63;;;;;;;;;;5001295;28;20044;-60
2022/11/01 14:07:22;;;;;;;10.93;5.03;;;;;;;;;;5001692;28;20162;-59
2022/11/01 14:09:52;;;;;;;11.90;4.85;;;;;;;;;;4979291;28;20432;-60
2022/11/01 14:12:34;;;;;;;9.82;5.22;;;;;;;;;;4988781;28;20504;-60
2022/11/01 14:15:12;;;;;;;7.20;4.22;;;;;;;;;;4989226;28;20564;-60
2022/11/01 14:17:55;;;;;;;9.35;4.70;;;;;;;;;;4988908;28;20395;-59
2022/11/01 14:20:35;;;;;;;14.30;6.20;;;;;;;;;;4991432;28;20323;-60
2022/11/01 14:23:29;;;;;;;10.40;4.93;;;;;;;;;;4991635;28;20029;-59
2022/11/01 14:26:20;;;;;;;12.90;6.18;;;;;;;;;;4992015;28;20337;-59
2022/11/01 14:28:47;;;;;;;11.25;6.22;;;;;;;;;;4991180;28;20041;-59
2022/11/01 14:31:13;;;;;;;19.05;6.10;;;;;;;;;;4973518;28;20118;-59
2022/11/01 14:33:38;;;;;;;14.15;6.00;;;;;;;;;;4991451;28;20371;-60
2022/11/01 14:36:04;;;;;;;23.65;8.75;;;;;;;;;;4973239;28;20340;-60
2022/11/01 14:38:34;;;;;;;15.15;9.60;;;;;;;;;;4973509;28;20459;-60
2022/11/01 14:41:00;;;;;;;11.45;6.93;;;;;;;;;;4973079;28;20029;-60
2022/11/01 14:43:34;;;;;;;18.42;6.70;;;;;;;;;;4991058;28;20506;-59
2022/11/01 14:46:08;;;;;;;16.83;6.53;;;;;;;;;;4973426;28;20428;-59